Time;durP1;ratioP1;P1;durP2;ratioP2;P2;SDS_P1;SDS_P2;PMS_P1;PMS_P2;Temp;Humidity;BMP_temperature;BMP_pressure;BME280_temperature;BME280_humidity;BME280_pressure;Samples;Min_cycle;Max_cycle;Signal;HPM_P1;HPM_P2
2023/09/30 00:01:43;;;;;;;0.38;0.30;;;;;;;;;;5007790;28;20053;-80
2023/09/30 00:04:09;;;;;;;0.20;0.10;;;;;;;;;;5005214;28;20045;-81
2023/09/30 00:06:35;;;;;;;0.20;0.00;;;;;;;;;;5005679;28;20571;-82
2023/09/30 00:09:02;;;;;;;0.20;0.10;;;;;;;;;;5007969;28;20109;-81
2023/09/30 00:11:28;;;;;;;0.20;0.05;;;;;;;;;;5003401;28;20050;-82
2023/09/30 00:13:54;;;;;;;0.20;0.00;;;;;;;;;;5006185;28;20038;-82
2023/09/30 00:16:20;;;;;;;0.30;0.30;;;;;;;;;;5007868;28;20095;-81
2023/09/30 00:18:46;;;;;;;0.20;0.00;;;;;;;;;;5007933;28;20046;-81
2023/09/30 00:21:12;;;;;;;0.20;0.10;;;;;;;;;;5005901;28;20535;-82
2023/09/30 00:23:38;;;;;;;0.20;0.00;;;;;;;;;;5000970;28;20160;-83
2023/09/30 00:26:05;;;;;;;0.20;0.15;;;;;;;;;;5006955;28;20034;-81
2023/09/30 00:28:31;;;;;;;0.20;0.00;;;;;;;;;;5010240;28;20504;-80
2023/09/30 00:30:57;;;;;;;0.20;0.10;;;;;;;;;;5009508;28;20076;-81
2023/09/30 00:33:23;;;;;;;0.20;0.10;;;;;;;;;;5006270;28;20044;-83
2023/09/30 00:35:49;;;;;;;0.20;0.00;;;;;;;;;;5004263;28;20524;-82
2023/09/30 00:38:15;;;;;;;0.20;0.10;;;;;;;;;;5008026;28;20120;-82
2023/09/30 00:40:47;;;;;;;0.20;0.10;;;;;;;;;;5003521;28;20069;-81
2023/09/30 00:43:18;;;;;;;0.20;0.10;;;;;;;;;;5002872;28;20037;-81
2023/09/30 00:45:44;;;;;;;0.20;0.10;;;;;;;;;;5004145;28;20143;-81
2023/09/30 00:48:10;;;;;;;0.20;0.00;;;;;;;;;;5007864;28;20042;-82
2023/09/30 00:50:37;;;;;;;0.50;0.50;;;;;;;;;;5008612;28;20045;-82
2023/09/30 00:53:03;;;;;;;0.20;0.10;;;;;;;;;;5004638;28;20117;-81
2023/09/30 00:55:29;;;;;;;0.20;0.00;;;;;;;;;;5008806;28;20034;-81
2023/09/30 00:57:56;;;;;;;0.20;0.00;;;;;;;;;;5008004;28;20049;-80
2023/09/30 01:00:25;;;;;;;0.20;0.00;;;;;;;;;;5010747;28;20117;-82
2023/09/30 01:02:52;;;;;;;0.20;0.00;;;;;;;;;;4986145;28;20491;-81
2023/09/30 01:05:19;;;;;;;0.20;0.00;;;;;;;;;;5002872;28;20649;-81
2023/09/30 01:07:45;;;;;;;0.20;0.10;;;;;;;;;;5005233;28;20044;-82
2023/09/30 01:10:11;;;;;;;0.20;0.00;;;;;;;;;;5009581;28;20038;-82
2023/09/30 01:12:37;;;;;;;0.20;0.00;;;;;;;;;;5006931;28;20095;-81
2023/09/30 01:15:06;;;;;;;0.20;0.00;;;;;;;;;;5009035;28;20048;-82
2023/09/30 01:17:32;;;;;;;0.20;0.00;;;;;;;;;;5009814;28;20049;-83
2023/09/30 01:20:04;;;;;;;0.40;0.40;;;;;;;;;;4985781;28;20046;-83
2023/09/30 01:22:30;;;;;;;0.20;0.10;;;;;;;;;;5003520;28;20550;-82
2023/09/30 01:24:56;;;;;;;0.20;0.10;;;;;;;;;;5001446;28;20149;-81
2023/09/30 01:27:23;;;;;;;0.20;0.00;;;;;;;;;;5007279;28;20136;-82
2023/09/30 01:29:50;;;;;;;0.20;0.00;;;;;;;;;;5003064;28;20069;-83
2023/09/30 01:32:16;;;;;;;0.20;0.10;;;;;;;;;;5007243;28;20054;-81
2023/09/30 01:34:42;;;;;;;0.20;0.10;;;;;;;;;;5006261;28;20133;-81
2023/09/30 01:37:08;;;;;;;0.20;0.00;;;;;;;;;;5008834;28;20795;-80
2023/09/30 01:39:34;;;;;;;0.20;0.10;;;;;;;;;;5007359;28;20038;-83
2023/09/30 01:42:00;;;;;;;0.20;0.10;;;;;;;;;;5013346;28;20038;-82
2023/09/30 01:44:27;;;;;;;0.20;0.00;;;;;;;;;;5006393;28;20026;-82
2023/09/30 01:46:53;;;;;;;0.20;0.00;;;;;;;;;;5004794;28;20057;-81
2023/09/30 01:49:19;;;;;;;0.20;0.10;;;;;;;;;;5000777;28;20520;-81
2023/09/30 01:51:45;;;;;;;0.20;0.00;;;;;;;;;;5000845;28;20128;-83
2023/09/30 01:54:11;;;;;;;0.20;0.00;;;;;;;;;;5009118;28;20053;-79
2023/09/30 01:56:37;;;;;;;0.20;0.00;;;;;;;;;;5019474;28;20489;-83
2023/09/30 01:59:04;;;;;;;0.20;0.00;;;;;;;;;;5023941;28;20034;-83
2023/09/30 02:01:30;;;;;;;0.20;0.00;;;;;;;;;;5024488;28;20034;-83
2023/09/30 02:03:56;;;;;;;0.20;0.10;;;;;;;;;;5025222;28;20041;-81
2023/09/30 02:06:22;;;;;;;0.20;0.00;;;;;;;;;;5017823;28;20038;-82
2023/09/30 02:08:48;;;;;;;0.20;0.10;;;;;;;;;;5012272;28;20362;-80
2023/09/30 02:11:14;;;;;;;0.20;0.10;;;;;;;;;;5008685;28;20510;-80
2023/09/30 02:13:41;;;;;;;0.20;0.00;;;;;;;;;;5015388;28;20514;-81
2023/09/30 02:16:11;;;;;;;0.20;0.00;;;;;;;;;;5018761;28;20516;-80
2023/09/30 02:18:37;;;;;;;0.20;0.20;;;;;;;;;;5008408;28;20046;-81
2023/09/30 02:21:04;;;;;;;0.30;0.20;;;;;;;;;;5015313;28;20077;-81
2023/09/30 02:23:30;;;;;;;0.20;0.10;;;;;;;;;;5008044;28;20094;-80
2023/09/30 02:25:56;;;;;;;0.20;0.00;;;;;;;;;;5012116;28;20061;-80
2023/09/30 02:28:22;;;;;;;0.20;0.00;;;;;;;;;;5007143;28;20041;-80
2023/09/30 02:30:48;;;;;;;0.20;0.00;;;;;;;;;;4991646;28;20056;-82
2023/09/30 02:33:14;;;;;;;0.20;0.20;;;;;;;;;;5010378;28;20057;-81
2023/09/30 02:35:45;;;;;;;0.20;0.00;;;;;;;;;;5005271;28;20073;-81
2023/09/30 02:38:11;;;;;;;0.45;0.30;;;;;;;;;;5007529;28;20034;-80
2023/09/30 02:40:38;;;;;;;0.20;0.00;;;;;;;;;;5012538;28;20042;-80
2023/09/30 02:43:04;;;;;;;0.20;0.15;;;;;;;;;;5008517;28;20044;-80
2023/09/30 02:45:30;;;;;;;0.20;0.00;;;;;;;;;;5010236;28;20034;-80
2023/09/30 02:47:56;;;;;;;0.50;0.40;;;;;;;;;;4990549;28;20113;-80
2023/09/30 02:50:22;;;;;;;0.20;0.00;;;;;;;;;;5009516;28;20475;-80
2023/09/30 02:52:49;;;;;;;0.35;0.32;;;;;;;;;;5009168;28;20061;-80
2023/09/30 02:55:15;;;;;;;0.20;0.10;;;;;;;;;;5010482;28;20045;-82
2023/09/30 02:57:42;;;;;;;0.20;0.10;;;;;;;;;;5006625;28;20054;-79
2023/09/30 03:00:23;;;;;;;0.20;0.00;;;;;;;;;;5007299;28;20038;-83
2023/09/30 03:02:50;;;;;;;0.20;0.00;;;;;;;;;;5009949;28;20049;-79
2023/09/30 03:05:17;;;;;;;0.20;0.10;;;;;;;;;;5009887;28;20113;-80
2023/09/30 03:07:43;;;;;;;0.20;0.10;;;;;;;;;;5008103;28;20046;-80
2023/09/30 03:10:09;;;;;;;0.20;0.10;;;;;;;;;;5011249;28;20038;-80
2023/09/30 03:12:35;;;;;;;0.20;0.00;;;;;;;;;;5006264;28;20044;-80
2023/09/30 03:15:05;;;;;;;0.20;0.00;;;;;;;;;;5010091;28;20053;-80
2023/09/30 03:17:32;;;;;;;0.20;0.20;;;;;;;;;;5011381;28;20405;-81
2023/09/30 03:19:58;;;;;;;0.20;0.10;;;;;;;;;;5007292;28;20046;-80
2023/09/30 03:22:25;;;;;;;0.20;0.08;;;;;;;;;;5000213;28;20041;-80
2023/09/30 03:24:53;;;;;;;0.55;0.52;;;;;;;;;;5008306;28;20045;-81
2023/09/30 03:27:20;;;;;;;0.20;0.10;;;;;;;;;;5006040;28;20667;-81
2023/09/30 03:29:46;;;;;;;0.20;0.20;;;;;;;;;;5005525;28;20041;-80
2023/09/30 03:32:12;;;;;;;0.20;0.10;;;;;;;;;;5007273;28;20048;-80
2023/09/30 03:34:39;;;;;;;0.20;0.10;;;;;;;;;;5005448;28;20048;-80
2023/09/30 03:37:06;;;;;;;0.20;0.00;;;;;;;;;;5005559;28;20030;-80
2023/09/30 03:39:32;;;;;;;0.20;0.00;;;;;;;;;;4994184;28;20053;-80
2023/09/30 03:42:00;;;;;;;0.20;0.20;;;;;;;;;;5006664;28;20109;-79
2023/09/30 03:44:26;;;;;;;0.20;0.13;;;;;;;;;;5006623;28;20038;-79
2023/09/30 03:46:52;;;;;;;0.20;0.20;;;;;;;;;;5008925;28;20042;-80
2023/09/30 03:49:22;;;;;;;0.40;0.40;;;;;;;;;;5006859;28;20128;-80
2023/09/30 03:51:50;;;;;;;0.20;0.00;;;;;;;;;;5008065;28;20055;-79
2023/09/30 03:54:17;;;;;;;0.20;0.00;;;;;;;;;;5005370;28;20057;-79
2023/09/30 03:56:43;;;;;;;0.20;0.10;;;;;;;;;;5005906;28;20502;-80
2023/09/30 03:59:09;;;;;;;0.38;0.38;;;;;;;;;;5007672;28;20590;-81
2023/09/30 04:01:39;;;;;;;0.25;0.08;;;;;;;;;;5002737;28;20096;-80
2023/09/30 04:04:07;;;;;;;0.20;0.10;;;;;;;;;;5002061;28;20510;-80
2023/09/30 04:06:33;;;;;;;0.20;0.00;;;;;;;;;;5003734;28;20046;-80
2023/09/30 04:08:59;;;;;;;0.57;0.20;;;;;;;;;;5002624;28;20692;-80
2023/09/30 04:11:25;;;;;;;0.20;0.00;;;;;;;;;;5007657;28;20108;-82
2023/09/30 04:13:51;;;;;;;0.20;0.10;;;;;;;;;;5003874;28;20119;-79
2023/09/30 04:16:19;;;;;;;0.20;0.15;;;;;;;;;;5006634;28;20040;-81
2023/09/30 04:18:46;;;;;;;0.20;0.00;;;;;;;;;;5004621;28;20494;-80
2023/09/30 04:21:12;;;;;;;0.20;0.00;;;;;;;;;;5003262;28;20057;-80
2023/09/30 04:23:38;;;;;;;0.20;0.10;;;;;;;;;;5003104;28;20034;-80
2023/09/30 04:26:05;;;;;;;0.20;0.10;;;;;;;;;;5004835;28;20042;-80
2023/09/30 04:28:31;;;;;;;0.40;0.40;;;;;;;;;;5004326;28;20808;-80
2023/09/30 04:30:58;;;;;;;0.20;0.00;;;;;;;;;;4998513;28;20654;-80
2023/09/30 04:33:24;;;;;;;0.20;0.10;;;;;;;;;;5003837;28;20052;-80
2023/09/30 04:35:50;;;;;;;0.20;0.10;;;;;;;;;;4999204;28;20046;-81
2023/09/30 04:38:16;;;;;;;0.20;0.00;;;;;;;;;;5005090;28;20494;-80
2023/09/30 04:40:44;;;;;;;0.20;0.00;;;;;;;;;;5005906;28;20046;-79
2023/09/30 04:43:10;;;;;;;0.20;0.00;;;;;;;;;;4985722;28;20495;-79
2023/09/30 04:45:37;;;;;;;0.20;0.00;;;;;;;;;;5021282;28;20041;-79
2023/09/30 04:48:03;;;;;;;0.20;0.00;;;;;;;;;;5003667;28;20042;-80
2023/09/30 04:50:30;;;;;;;0.20;0.00;;;;;;;;;;5007767;28;20402;-81
2023/09/30 04:52:57;;;;;;;0.20;0.10;;;;;;;;;;5004752;28;20042;-80
2023/09/30 04:55:23;;;;;;;0.20;0.00;;;;;;;;;;5005835;28;20422;-80
2023/09/30 04:57:50;;;;;;;0.20;0.00;;;;;;;;;;5004971;28;20633;-81
2023/09/30 05:00:17;;;;;;;0.20;0.00;;;;;;;;;;5006100;28;20064;-82
2023/09/30 05:02:44;;;;;;;0.20;0.00;;;;;;;;;;5009444;28;20128;-81
2023/09/30 05:05:11;;;;;;;0.20;0.10;;;;;;;;;;5001966;28;20406;-82
2023/09/30 05:07:37;;;;;;;0.20;0.10;;;;;;;;;;5007238;28;20117;-82
2023/09/30 05:10:05;;;;;;;0.20;0.10;;;;;;;;;;5003574;28;20483;-81
2023/09/30 05:12:33;;;;;;;0.57;0.20;;;;;;;;;;5002148;28;20041;-81
2023/09/30 05:14:59;;;;;;;0.20;0.00;;;;;;;;;;4999054;28;20041;-80
2023/09/30 05:17:25;;;;;;;0.20;0.10;;;;;;;;;;5005327;28;20046;-80
2023/09/30 05:19:51;;;;;;;0.20;0.10;;;;;;;;;;5000800;28;20054;-81
2023/09/30 05:22:21;;;;;;;0.77;0.57;;;;;;;;;;4999189;28;20044;-81
2023/09/30 05:24:47;;;;;;;0.20;0.10;;;;;;;;;;5001848;28;20092;-81
2023/09/30 05:27:13;;;;;;;0.20;0.05;;;;;;;;;;4998185;28;20104;-80
2023/09/30 05:29:39;;;;;;;0.20;0.10;;;;;;;;;;4997605;28;20041;-82
2023/09/30 05:32:06;;;;;;;0.20;0.10;;;;;;;;;;4995743;28;22896;-81
2023/09/30 05:34:32;;;;;;;0.20;0.00;;;;;;;;;;5011597;28;20049;-81
2023/09/30 05:36:58;;;;;;;0.20;0.10;;;;;;;;;;5012240;28;20050;-80
2023/09/30 05:39:25;;;;;;;0.20;0.00;;;;;;;;;;4995468;28;20046;-80
2023/09/30 05:41:51;;;;;;;0.20;0.10;;;;;;;;;;5015897;28;20045;-81
2023/09/30 05:44:17;;;;;;;0.20;0.10;;;;;;;;;;5018291;28;20541;-81
2023/09/30 05:46:43;;;;;;;0.55;0.20;;;;;;;;;;5001400;28;20037;-80
2023/09/30 05:49:11;;;;;;;0.20;0.03;;;;;;;;;;4997797;28;20143;-80
2023/09/30 05:51:37;;;;;;;0.20;0.10;;;;;;;;;;5016170;28;20755;-81
2023/09/30 05:54:04;;;;;;;0.20;0.00;;;;;;;;;;5005318;28;20065;-81
2023/09/30 05:56:31;;;;;;;0.20;0.03;;;;;;;;;;5005589;28;20079;-82
2023/09/30 05:58:57;;;;;;;0.20;0.10;;;;;;;;;;5009848;28;20600;-81
2023/09/30 06:01:23;;;;;;;0.20;0.00;;;;;;;;;;5009191;28;20050;-81
2023/09/30 06:03:49;;;;;;;0.28;0.13;;;;;;;;;;5006636;28;20042;-82
2023/09/30 06:06:15;;;;;;;0.20;0.00;;;;;;;;;;5008364;28;20048;-81
2023/09/30 06:08:45;;;;;;;0.20;0.00;;;;;;;;;;5003367;28;21174;-81
2023/09/30 06:11:30;;;;;;;0.20;0.05;;;;;;;;;;5007171;28;20200;-81
2023/09/30 06:13:58;;;;;;;2.08;0.60;;;;;;;;;;5019004;28;20038;-81
2023/09/30 06:16:26;;;;;;;0.20;0.13;;;;;;;;;;5013951;28;20038;-82
2023/09/30 06:18:52;;;;;;;0.20;0.00;;;;;;;;;;5011676;28;20045;-81
2023/09/30 06:21:20;;;;;;;0.57;0.32;;;;;;;;;;5006371;28;20064;-82
2023/09/30 06:23:51;;;;;;;0.30;0.25;;;;;;;;;;5005310;28;20069;-81
2023/09/30 06:26:18;;;;;;;0.20;0.00;;;;;;;;;;5009549;28;20052;-82
2023/09/30 06:28:44;;;;;;;0.20;0.10;;;;;;;;;;5003623;28;20044;-81
2023/09/30 06:31:11;;;;;;;0.20;0.00;;;;;;;;;;5013057;28;20087;-81
2023/09/30 06:33:40;;;;;;;0.93;0.75;;;;;;;;;;5011997;28;20034;-81
2023/09/30 06:36:10;;;;;;;0.20;0.00;;;;;;;;;;5007123;28;20034;-81
2023/09/30 06:38:37;;;;;;;0.20;0.00;;;;;;;;;;5014287;28;20038;-81
2023/09/30 06:41:03;;;;;;;0.20;0.20;;;;;;;;;;5010768;28;20064;-81
2023/09/30 06:43:29;;;;;;;0.20;0.10;;;;;;;;;;4988364;28;20383;-81
2023/09/30 06:45:55;;;;;;;0.20;0.17;;;;;;;;;;5010395;28;20460;-82
2023/09/30 06:48:21;;;;;;;0.20;0.00;;;;;;;;;;5008068;28;20042;-81
2023/09/30 06:50:48;;;;;;;0.38;0.25;;;;;;;;;;5010188;28;20042;-83
2023/09/30 06:53:21;;;;;;;0.95;0.70;;;;;;;;;;5007109;28;20101;-81
2023/09/30 06:55:47;;;;;;;0.20;0.10;;;;;;;;;;5007075;28;20045;-80
2023/09/30 06:58:13;;;;;;;0.20;0.00;;;;;;;;;;5008175;28;20065;-81
2023/09/30 07:00:42;;;;;;;0.30;0.10;;;;;;;;;;5008176;28;20518;-81
2023/09/30 07:03:09;;;;;;;0.20;0.10;;;;;;;;;;5006104;28;20168;-80
2023/09/30 07:05:36;;;;;;;0.20;0.00;;;;;;;;;;5008535;28;20038;-82
2023/09/30 07:08:02;;;;;;;0.20;0.00;;;;;;;;;;5004905;28;20105;-80
2023/09/30 07:10:29;;;;;;;0.20;0.10;;;;;;;;;;5006220;28;20491;-82
2023/09/30 07:12:55;;;;;;;0.20;0.10;;;;;;;;;;5004554;28;20076;-81
2023/09/30 07:15:22;;;;;;;0.20;0.00;;;;;;;;;;5007031;28;20088;-81
2023/09/30 07:17:48;;;;;;;0.40;0.17;;;;;;;;;;5004673;28;20172;-81
2023/09/30 07:20:14;;;;;;;0.20;0.20;;;;;;;;;;5001554;28;20120;-82
2023/09/30 07:22:40;;;;;;;0.20;0.10;;;;;;;;;;5004053;28;20045;-82
2023/09/30 07:25:06;;;;;;;0.68;0.52;;;;;;;;;;4998690;28;20084;-82
2023/09/30 07:27:32;;;;;;;0.20;0.10;;;;;;;;;;5002456;28;20081;-81
2023/09/30 07:29:58;;;;;;;0.20;0.00;;;;;;;;;;5003977;28;20038;-81
2023/09/30 07:32:24;;;;;;;0.20;0.00;;;;;;;;;;5006670;28;20410;-81
2023/09/30 07:34:51;;;;;;;0.20;0.00;;;;;;;;;;5003921;28;20053;-81
2023/09/30 07:37:18;;;;;;;0.20;0.10;;;;;;;;;;5005415;28;20236;-81
2023/09/30 07:39:45;;;;;;;0.20;0.05;;;;;;;;;;5004877;28;20524;-81
2023/09/30 07:42:11;;;;;;;0.30;0.25;;;;;;;;;;5001561;28;20034;-82
2023/09/30 07:44:37;;;;;;;0.25;0.13;;;;;;;;;;5004072;28;20030;-82
2023/09/30 07:47:06;;;;;;;0.20;0.10;;;;;;;;;;5006897;28;20045;-81
2023/09/30 07:49:32;;;;;;;0.20;0.00;;;;;;;;;;4999286;28;20034;-82
2023/09/30 07:51:58;;;;;;;0.20;0.00;;;;;;;;;;5003757;28;20077;-82
2023/09/30 07:54:24;;;;;;;0.20;0.00;;;;;;;;;;5000751;28;20144;-82
2023/09/30 07:56:50;;;;;;;0.20;0.10;;;;;;;;;;5010941;28;20065;-82
2023/09/30 07:59:16;;;;;;;0.20;0.10;;;;;;;;;;5005200;28;20037;-83
2023/09/30 08:01:42;;;;;;;0.20;0.10;;;;;;;;;;5013327;28;20046;-83
2023/09/30 08:04:08;;;;;;;0.20;0.10;;;;;;;;;;5013483;28;20112;-82
2023/09/30 08:06:34;;;;;;;0.20;0.10;;;;;;;;;;5017721;28;20053;-82
2023/09/30 08:09:02;;;;;;;0.20;0.08;;;;;;;;;;5019782;28;20045;-83
2023/09/30 08:11:30;;;;;;;0.20;0.00;;;;;;;;;;5019798;28;20429;-82
2023/09/30 08:13:58;;;;;;;0.20;0.00;;;;;;;;;;5015642;28;20066;-82
2023/09/30 08:16:25;;;;;;;0.20;0.10;;;;;;;;;;5023107;28;20040;-82
2023/09/30 08:18:51;;;;;;;0.38;0.38;;;;;;;;;;5019458;28;20084;-82
2023/09/30 08:21:17;;;;;;;3.83;0.38;;;;;;;;;;5007594;28;20034;-84
2023/09/30 08:23:44;;;;;;;0.35;0.35;;;;;;;;;;5010445;28;20502;-83
2023/09/30 08:26:10;;;;;;;0.30;0.10;;;;;;;;;;5007616;28;20433;-84
2023/09/30 08:28:36;;;;;;;0.20;0.10;;;;;;;;;;5009898;28;20073;-84
2023/09/30 08:31:03;;;;;;;0.20;0.10;;;;;;;;;;5005931;28;20050;-83
2023/09/30 08:33:30;;;;;;;0.20;0.00;;;;;;;;;;5004425;28;20467;-84
2023/09/30 08:35:58;;;;;;;0.20;0.00;;;;;;;;;;5009972;28;20068;-84
2023/09/30 08:38:24;;;;;;;0.20;0.10;;;;;;;;;;5007257;28;20045;-83
2023/09/30 08:40:53;;;;;;;0.88;0.85;;;;;;;;;;4988577;28;20038;-84
2023/09/30 08:43:23;;;;;;;0.30;0.30;;;;;;;;;;5005782;28;20237;-83
2023/09/30 08:45:52;;;;;;;0.20;0.10;;;;;;;;;;5008805;28;20033;-83
2023/09/30 08:48:18;;;;;;;0.20;0.10;;;;;;;;;;5009429;28;20042;-83
2023/09/30 08:50:44;;;;;;;0.20;0.10;;;;;;;;;;5011569;28;20046;-82
2023/09/30 08:53:11;;;;;;;0.20;0.00;;;;;;;;;;5012578;28;20042;-83
2023/09/30 08:55:38;;;;;;;0.20;0.10;;;;;;;;;;5005457;28;20045;-82
2023/09/30 08:58:05;;;;;;;0.20;0.00;;;;;;;;;;5009874;28;20053;-82
2023/09/30 09:00:31;;;;;;;0.20;0.03;;;;;;;;;;4999616;28;20131;-81
2023/09/30 09:02:57;;;;;;;0.20;0.10;;;;;;;;;;5007893;28;20037;-83
2023/09/30 09:05:23;;;;;;;0.30;0.30;;;;;;;;;;5005878;28;20544;-83
2023/09/30 09:07:50;;;;;;;0.20;0.08;;;;;;;;;;5005961;28;20034;-83
2023/09/30 09:10:16;;;;;;;0.20;0.20;;;;;;;;;;5017908;22;20484;-83
2023/09/30 09:12:44;;;;;;;0.20;0.00;;;;;;;;;;5002386;28;20523;-82
2023/09/30 09:15:20;;;;;;;0.73;0.60;;;;;;;;;;5005408;28;20177;-82
2023/09/30 09:17:46;;;;;;;0.20;0.10;;;;;;;;;;4982472;28;20031;-83
2023/09/30 09:20:20;;;;;;;0.20;0.00;;;;;;;;;;4998646;28;20046;-83
2023/09/30 09:22:46;;;;;;;0.20;0.10;;;;;;;;;;4985011;28;20039;-83
2023/09/30 09:25:13;;;;;;;0.20;0.10;;;;;;;;;;4988593;28;20500;-82
2023/09/30 09:27:39;;;;;;;0.20;0.13;;;;;;;;;;4990178;28;20543;-82
2023/09/30 09:30:15;;;;;;;0.20;0.10;;;;;;;;;;5009540;28;20150;-83
2023/09/30 09:33:02;;;;;;;0.20;0.00;;;;;;;;;;5009629;28;20046;-82
2023/09/30 09:35:30;;;;;;;0.20;0.10;;;;;;;;;;5000197;28;20529;-84
2023/09/30 09:37:57;;;;;;;0.20;0.10;;;;;;;;;;5005371;28;20254;-83
2023/09/30 09:40:24;;;;;;;0.20;0.10;;;;;;;;;;4985549;28;20046;-83
2023/09/30 09:42:53;;;;;;;0.20;0.03;;;;;;;;;;5002241;28;20227;-83
2023/09/30 09:45:22;;;;;;;0.50;0.28;;;;;;;;;;4996714;28;20096;-82
2023/09/30 09:47:49;;;;;;;0.20;0.10;;;;;;;;;;4990536;28;20042;-83
2023/09/30 09:50:15;;;;;;;0.30;0.20;;;;;;;;;;5001697;28;20151;-83
2023/09/30 09:52:45;;;;;;;0.20;0.00;;;;;;;;;;5000469;28;20077;-83
2023/09/30 09:55:11;;;;;;;0.20;0.05;;;;;;;;;;5018711;28;20606;-83
2023/09/30 09:57:38;;;;;;;0.20;0.10;;;;;;;;;;5004322;28;20042;-83
2023/09/30 10:00:11;;;;;;;0.20;0.03;;;;;;;;;;4988225;28;20538;-83
2023/09/30 10:02:40;;;;;;;0.20;0.10;;;;;;;;;;5016900;28;20510;-83
2023/09/30 10:05:06;;;;;;;0.40;0.20;;;;;;;;;;5002874;28;20081;-84
2023/09/30 10:07:45;;;;;;;1.40;0.80;;;;;;;;;;5002629;28;20475;-83
2023/09/30 10:10:14;;;;;;;0.20;0.10;;;;;;;;;;4999933;28;20605;-83
2023/09/30 10:12:41;;;;;;;0.20;0.10;;;;;;;;;;5005613;28;20414;-83
2023/09/30 10:15:25;;;;;;;0.20;0.10;;;;;;;;;;4987620;28;20038;-83
2023/09/30 10:18:11;;;;;;;0.20;0.00;;;;;;;;;;5004833;28;20042;-82
2023/09/30 10:20:41;;;;;;;0.20;0.20;;;;;;;;;;4999877;28;20157;-83
2023/09/30 10:23:20;;;;;;;0.45;0.20;;;;;;;;;;5000262;28;20498;-83
2023/09/30 10:25:47;;;;;;;0.20;0.10;;;;;;;;;;5003767;28;20096;-84
2023/09/30 10:28:32;;;;;;;0.20;0.10;;;;;;;;;;4985365;28;20073;-83
2023/09/30 10:31:09;;;;;;;0.20;0.10;;;;;;;;;;4983217;28;20039;-83
2023/09/30 10:33:35;;;;;;;0.40;0.30;;;;;;;;;;5001405;28;20042;-83
2023/09/30 10:36:03;;;;;;;0.20;0.10;;;;;;;;;;5003707;28;20084;-84
2023/09/30 10:38:35;;;;;;;0.30;0.30;;;;;;;;;;5000087;28;21103;-84
2023/09/30 10:41:05;;;;;;;0.75;0.75;;;;;;;;;;5001086;28;20400;-86
2023/09/30 10:43:31;;;;;;;0.20;0.05;;;;;;;;;;4991037;28;20503;-83
2023/09/30 10:45:58;;;;;;;0.20;0.20;;;;;;;;;;5004617;28;20038;-84
2023/09/30 10:48:37;;;;;;;0.20;0.10;;;;;;;;;;5003121;28;20106;-82
2023/09/30 10:51:12;;;;;;;0.20;0.10;;;;;;;;;;5003991;28;20042;-83
2023/09/30 10:53:42;;;;;;;0.43;0.43;;;;;;;;;;5003279;28;20061;-84
2023/09/30 10:56:08;;;;;;;0.20;0.00;;;;;;;;;;5020492;28;20045;-83
2023/09/30 10:58:45;;;;;;;0.20;0.10;;;;;;;;;;5002750;28;20034;-83
2023/09/30 11:01:15;;;;;;;0.22;0.22;;;;;;;;;;4995333;28;20046;-84
2023/09/30 11:03:41;;;;;;;0.20;0.10;;;;;;;;;;5000158;28;20046;-83
2023/09/30 11:06:07;;;;;;;0.20;0.08;;;;;;;;;;4995948;28;20042;-84
2023/09/30 11:08:34;;;;;;;0.20;0.10;;;;;;;;;;4984357;28;20043;-83
2023/09/30 11:11:01;;;;;;;0.20;0.10;;;;;;;;;;5003509;28;20038;-84
2023/09/30 11:13:36;;;;;;;0.20;0.10;;;;;;;;;;4992670;28;20042;-84
2023/09/30 11:16:07;;;;;;;0.20;0.00;;;;;;;;;;4991123;28;20057;-83
2023/09/30 11:18:33;;;;;;;0.20;0.10;;;;;;;;;;4980610;28;20169;-84
2023/09/30 11:21:06;;;;;;;0.20;0.10;;;;;;;;;;4998332;28;20046;-84
2023/09/30 11:23:33;;;;;;;0.20;0.00;;;;;;;;;;4980844;28;20535;-84
2023/09/30 11:25:59;;;;;;;0.25;0.25;;;;;;;;;;4977156;28;20039;-84
2023/09/30 11:28:28;;;;;;;0.20;0.20;;;;;;;;;;5016621;28;20359;-84
2023/09/30 11:31:02;;;;;;;0.20;0.10;;;;;;;;;;4999866;28;20108;-83
2023/09/30 11:33:28;;;;;;;0.20;0.00;;;;;;;;;;4998472;28;20046;-84
2023/09/30 11:35:58;;;;;;;0.20;0.00;;;;;;;;;;4999570;28;20046;-84
2023/09/30 11:38:24;;;;;;;0.30;0.30;;;;;;;;;;5007025;28;20046;-83
2023/09/30 11:41:02;;;;;;;0.20;0.10;;;;;;;;;;4990352;28;20046;-84
2023/09/30 11:43:29;;;;;;;0.20;0.10;;;;;;;;;;4984378;28;20042;-84
2023/09/30 11:46:05;;;;;;;0.20;0.00;;;;;;;;;;4999003;28;20112;-84
2023/09/30 11:48:31;;;;;;;2.30;0.73;;;;;;;;;;4987168;28;20037;-85
2023/09/30 11:51:01;;;;;;;0.20;0.10;;;;;;;;;;4995553;28;20554;-83
2023/09/30 11:53:30;;;;;;;0.20;0.10;;;;;;;;;;4985080;28;20046;-85
2023/09/30 11:55:57;;;;;;;0.20;0.10;;;;;;;;;;4997001;28;20209;-85
2023/09/30 11:58:23;;;;;;;0.63;0.43;;;;;;;;;;4995144;28;20146;-85
2023/09/30 12:00:50;;;;;;;0.45;0.45;;;;;;;;;;4998894;28;20465;-85
2023/09/30 12:03:17;;;;;;;0.20;0.05;;;;;;;;;;4986409;28;20050;-83
2023/09/30 12:05:45;;;;;;;0.20;0.10;;;;;;;;;;4997165;28;20077;-86
2023/09/30 12:08:11;;;;;;;0.68;0.22;;;;;;;;;;4980590;28;20038;-85
2023/09/30 12:10:38;;;;;;;0.20;0.00;;;;;;;;;;4994973;28;20132;-82
2023/09/30 12:13:04;;;;;;;0.20;0.10;;;;;;;;;;5013123;28;20524;-86
2023/09/30 12:15:31;;;;;;;0.20;0.10;;;;;;;;;;4983160;28;20581;-85
2023/09/30 12:17:57;;;;;;;0.20;0.00;;;;;;;;;;4987259;28;20125;-87
2023/09/30 12:20:23;;;;;;;0.20;0.00;;;;;;;;;;4995141;28;20157;-84
2023/09/30 12:22:49;;;;;;;0.20;0.10;;;;;;;;;;4986186;28;20910;-85
2023/09/30 12:25:17;;;;;;;0.20;0.10;;;;;;;;;;5005146;28;20121;-85
2023/09/30 12:27:46;;;;;;;0.20;0.00;;;;;;;;;;5001683;28;20054;-84
2023/09/30 12:30:13;;;;;;;0.20;0.00;;;;;;;;;;5015282;28;20044;-86
2023/09/30 12:32:39;;;;;;;0.57;0.57;;;;;;;;;;4999491;28;20390;-85
2023/09/30 12:35:06;;;;;;;0.20;0.05;;;;;;;;;;4996191;28;20474;-84
2023/09/30 12:37:32;;;;;;;0.20;0.05;;;;;;;;;;4984708;28;20553;-85
2023/09/30 12:39:58;;;;;;;0.20;0.10;;;;;;;;;;4983116;28;20088;-84
2023/09/30 12:42:24;;;;;;;0.25;0.20;;;;;;;;;;4987000;28;20045;-85
2023/09/30 12:44:50;;;;;;;0.55;0.50;;;;;;;;;;5002054;28;20042;-85
2023/09/30 12:47:16;;;;;;;0.20;0.10;;;;;;;;;;4984526;28;20045;-84
2023/09/30 12:49:42;;;;;;;0.20;0.00;;;;;;;;;;4986646;28;20050;-84
2023/09/30 12:52:08;;;;;;;0.20;0.10;;;;;;;;;;5000904;28;20518;-84
2023/09/30 12:54:34;;;;;;;1.20;0.90;;;;;;;;;;5015516;28;20491;-86
2023/09/30 12:57:00;;;;;;;0.20;0.00;;;;;;;;;;4975979;28;20100;-84
2023/09/30 12:59:26;;;;;;;0.20;0.00;;;;;;;;;;5015883;28;20093;-83
2023/09/30 13:01:53;;;;;;;0.20;0.00;;;;;;;;;;4986048;28;20069;-81
2023/09/30 13:04:19;;;;;;;0.20;0.20;;;;;;;;;;4982376;28;20042;-82
2023/09/30 13:06:45;;;;;;;0.20;0.10;;;;;;;;;;4990887;28;20042;-84
2023/09/30 13:09:11;;;;;;;0.20;0.00;;;;;;;;;;4990007;28;20668;-83
2023/09/30 13:11:38;;;;;;;0.30;0.30;;;;;;;;;;4999028;28;20038;-85
2023/09/30 13:14:04;;;;;;;0.20;0.00;;;;;;;;;;4996684;28;20057;-84
2023/09/30 13:16:31;;;;;;;0.25;0.20;;;;;;;;;;5002425;28;20049;-85
2023/09/30 13:18:57;;;;;;;0.20;0.10;;;;;;;;;;4991922;28;20034;-84
2023/09/30 13:21:23;;;;;;;0.20;0.10;;;;;;;;;;4999362;28;20418;-83
2023/09/30 13:23:49;;;;;;;0.20;0.00;;;;;;;;;;4996607;28;20821;-84
2023/09/30 13:26:15;;;;;;;0.20;0.00;;;;;;;;;;5001384;28;20038;-86
2023/09/30 13:28:41;;;;;;;0.20;0.00;;;;;;;;;;4999459;28;20112;-83
2023/09/30 13:31:07;;;;;;;0.20;0.10;;;;;;;;;;5001168;28;20152;-84
2023/09/30 13:33:33;;;;;;;0.20;0.03;;;;;;;;;;5005122;28;20050;-83
2023/09/30 13:36:00;;;;;;;0.20;0.00;;;;;;;;;;4993776;28;20741;-83
2023/09/30 13:38:26;;;;;;;0.22;0.22;;;;;;;;;;4984278;28;20059;-84
2023/09/30 13:40:52;;;;;;;0.20;0.00;;;;;;;;;;5001001;28;20042;-83
2023/09/30 13:43:18;;;;;;;0.20;0.15;;;;;;;;;;5004967;28;20041;-83
2023/09/30 13:45:44;;;;;;;0.20;0.00;;;;;;;;;;5001966;28;20117;-83
2023/09/30 13:48:11;;;;;;;0.20;0.10;;;;;;;;;;4981679;28;20478;-84
2023/09/30 13:50:37;;;;;;;0.20;0.10;;;;;;;;;;5018884;28;20038;-84
2023/09/30 13:53:03;;;;;;;0.63;0.43;;;;;;;;;;4988864;28;20469;-84
2023/09/30 13:55:29;;;;;;;0.20;0.10;;;;;;;;;;5021710;28;20046;-85
2023/09/30 13:57:55;;;;;;;0.20;0.00;;;;;;;;;;5001105;28;20542;-81
2023/09/30 14:00:21;;;;;;;0.20;0.10;;;;;;;;;;5001402;28;20050;-83
2023/09/30 14:02:47;;;;;;;0.20;0.10;;;;;;;;;;4972833;28;20045;-84
2023/09/30 14:05:13;;;;;;;0.20;0.00;;;;;;;;;;5015410;28;20095;-84
2023/09/30 14:07:43;;;;;;;0.20;0.00;;;;;;;;;;4982773;28;20138;-84
2023/09/30 14:10:10;;;;;;;0.20;0.00;;;;;;;;;;4980807;28;20046;-84
2023/09/30 14:12:37;;;;;;;0.20;0.00;;;;;;;;;;5001053;28;20038;-82
2023/09/30 14:15:05;;;;;;;0.25;0.15;;;;;;;;;;4996460;28;20050;-86
2023/09/30 14:17:31;;;;;;;1.85;0.82;;;;;;;;;;4984717;28;20105;-85
2023/09/30 14:19:57;;;;;;;0.20;0.00;;;;;;;;;;5004782;28;20068;-86
2023/09/30 14:22:23;;;;;;;0.20;0.15;;;;;;;;;;4999479;28;20528;-83
2023/09/30 14:24:49;;;;;;;0.20;0.10;;;;;;;;;;4980173;28;20161;-84
2023/09/30 14:27:15;;;;;;;0.20;0.10;;;;;;;;;;4989566;28;20042;-85
2023/09/30 14:29:43;;;;;;;0.20;0.10;;;;;;;;;;4999033;28;20522;-85
2023/09/30 14:32:09;;;;;;;0.20;0.20;;;;;;;;;;4981404;28;20038;-83
2023/09/30 14:34:35;;;;;;;0.20;0.10;;;;;;;;;;4998833;28;20031;-85
2023/09/30 14:37:01;;;;;;;0.20;0.10;;;;;;;;;;5001196;28;20043;-83
2023/09/30 14:39:27;;;;;;;0.20;0.20;;;;;;;;;;5002497;28;20030;-84
2023/09/30 14:41:53;;;;;;;0.20;0.00;;;;;;;;;;4999289;28;20421;-85
2023/09/30 14:44:21;;;;;;;0.20;0.00;;;;;;;;;;4998112;28;20034;-85